createdAt,value
2022-11-20T00:01:36.207Z,16.11
2022-11-20T00:07:05.633Z,16.49
2022-11-20T00:12:35.196Z,14.73
2022-11-20T00:18:05.027Z,14.79
2022-11-20T00:23:43.304Z,13.08
2022-11-20T00:29:07.306Z,12.97
2022-11-20T00:34:53.048Z,12.32
2022-11-20T00:40:23.909Z,14.27
2022-11-20T00:45:57.413Z,14.16
2022-11-20T00:51:24.162Z,15.34
2022-11-20T00:57:03.879Z,15.66
2022-11-20T01:02:47.233Z,14.28
2022-11-20T01:08:29.904Z,13.79
2022-11-20T01:14:04.186Z,18.81
2022-11-20T01:19:34.186Z,16.27
2022-11-20T01:25:05.621Z,15.97
2022-11-20T01:30:33.654Z,12.85
2022-11-20T01:36:00.639Z,14.91
2022-11-20T01:41:35.474Z,15.27
2022-11-20T01:47:00.000Z,11.11
2022-11-20T01:52:26.866Z,16.53
2022-11-20T01:57:57.028Z,13.81
2022-11-20T02:03:24.130Z,14.33
2022-11-20T02:08:53.538Z,13.29
2022-11-20T02:14:19.031Z,17.12
2022-11-20T02:19:44.016Z,15.00
2022-11-20T02:25:09.050Z,16.51
2022-11-20T02:30:35.515Z,13.75
2022-11-20T02:36:12.766Z,13.66
2022-11-20T02:41:48.647Z,12.11
2022-11-20T02:47:18.450Z,15.23
2022-11-20T02:52:54.334Z,12.43
2022-11-20T02:58:35.800Z,12.23
2022-11-20T03:03:59.373Z,14.74
2022-11-20T03:09:27.785Z,15.49
2022-11-20T03:14:53.328Z,13.63
2022-11-20T03:20:15.663Z,13.36
2022-11-20T03:25:47.750Z,13.80
2022-11-20T03:31:24.199Z,13.28
2022-11-20T03:36:47.133Z,13.46
2022-11-20T03:42:09.379Z,14.36
2022-11-20T03:47:35.804Z,13.71
2022-11-20T03:52:59.639Z,10.79
2022-11-20T03:58:24.593Z,15.26
2022-11-20T04:03:54.624Z,16.97
2022-11-20T04:09:21.269Z,15.77
2022-11-20T04:14:48.287Z,18.90
2022-11-20T04:20:12.250Z,25.73
2022-11-20T04:26:07.547Z,20.44
2022-11-20T04:32:00.820Z,20.07
2022-11-20T04:37:27.527Z,19.94
2022-11-20T04:43:00.159Z,18.63
2022-11-20T04:48:34.036Z,18.37
2022-11-20T04:54:01.721Z,14.27
2022-11-20T04:59:24.713Z,15.78
2022-11-20T05:04:46.993Z,13.10
2022-11-20T05:10:14.950Z,15.07
2022-11-20T05:16:06.388Z,17.14
2022-11-20T05:21:33.883Z,17.70
2022-11-20T05:27:08.981Z,13.59
2022-11-20T05:32:35.308Z,16.02
2022-11-20T05:38:01.682Z,17.15
2022-11-20T05:43:24.162Z,18.26
2022-11-20T05:48:50.331Z,17.09
2022-11-20T05:54:25.245Z,21.48
2022-11-20T05:59:49.358Z,16.59
2022-11-20T06:05:14.957Z,19.15
2022-11-20T06:10:39.217Z,16.37
2022-11-20T06:16:04.539Z,18.47
2022-11-20T06:21:28.073Z,20.52
2022-11-20T06:26:51.143Z,15.14
2022-11-20T06:32:17.521Z,20.07
2022-11-20T06:37:44.633Z,18.00
2022-11-20T06:43:09.035Z,21.46
2022-11-20T06:48:35.451Z,18.59
2022-11-20T06:53:56.346Z,16.49
2022-11-20T06:59:21.400Z,18.65
2022-11-20T07:04:47.370Z,20.00
2022-11-20T07:10:09.311Z,19.16
2022-11-20T07:15:36.568Z,19.52
2022-11-20T07:20:58.672Z,19.62
2022-11-20T07:26:23.352Z,17.59
2022-11-20T07:31:46.077Z,20.18
2022-11-20T07:37:12.933Z,20.99
2022-11-20T07:42:36.624Z,20.66
2022-11-20T07:48:03.165Z,18.91
2022-11-20T07:53:27.939Z,21.64
2022-11-20T07:58:53.960Z,19.58
2022-11-20T08:04:17.296Z,22.68
2022-11-20T08:09:38.886Z,22.40
2022-11-20T08:15:11.382Z,23.83
2022-11-20T08:20:28.037Z,28.47
2022-11-20T08:25:51.708Z,31.81
2022-11-20T08:31:15.477Z,27.41
2022-11-20T08:36:40.475Z,25.25
2022-11-20T08:42:07.708Z,29.61
2022-11-20T08:47:33.697Z,32.76
2022-11-20T08:52:56.225Z,30.40
2022-11-20T08:58:23.008Z,31.60
2022-11-20T09:03:46.647Z,31.30
2022-11-20T09:09:12.001Z,32.12
2022-11-20T09:14:36.109Z,33.97
2022-11-20T09:20:01.080Z,30.61
2022-11-20T09:25:28.005Z,31.76
2022-11-20T09:30:54.193Z,27.32
2022-11-20T09:36:18.169Z,29.66
2022-11-20T09:41:46.040Z,32.97
2022-11-20T09:47:21.216Z,31.65
2022-11-20T09:52:44.819Z,33.78
2022-11-20T09:58:08.342Z,32.83
2022-11-20T10:03:31.978Z,30.84
2022-11-20T10:08:59.631Z,30.82
2022-11-20T10:14:35.488Z,34.54
2022-11-20T10:20:03.979Z,31.16
2022-11-20T10:25:30.900Z,27.72
2022-11-20T10:30:58.497Z,33.06
2022-11-20T10:36:20.288Z,25.65
2022-11-20T10:41:41.992Z,27.51
2022-11-20T10:47:03.148Z,28.69
2022-11-20T10:52:26.311Z,29.35
2022-11-20T10:57:54.372Z,29.86
2022-11-20T11:03:23.035Z,30.14
2022-11-20T11:08:47.687Z,26.36
2022-11-20T11:14:14.871Z,26.49
2022-11-20T11:19:41.851Z,29.81
2022-11-20T11:25:13.822Z,27.50
2022-11-20T11:30:45.160Z,29.56
2022-11-20T11:36:11.519Z,29.26
2022-11-20T11:41:40.483Z,28.43
2022-11-20T11:47:04.233Z,26.96
2022-11-20T11:52:31.527Z,26.69
2022-11-20T11:57:55.583Z,27.99
2022-11-20T12:03:20.548Z,23.34
2022-11-20T12:08:43.801Z,24.38
2022-11-20T12:14:05.972Z,28.67
2022-11-20T12:19:33.446Z,22.83
2022-11-20T12:25:01.055Z,26.84
2022-11-20T12:30:25.341Z,26.50
2022-11-20T12:35:53.052Z,27.86
2022-11-20T12:41:22.024Z,29.17
2022-11-20T12:47:01.632Z,26.35
2022-11-20T12:52:30.973Z,28.22
2022-11-20T12:58:00.032Z,31.80
2022-11-20T13:03:26.649Z,37.49
2022-11-20T13:08:58.290Z,31.65
2022-11-20T13:14:25.572Z,30.40
2022-11-20T13:19:52.513Z,30.23
2022-11-20T13:25:16.644Z,25.65
2022-11-20T13:30:44.580Z,28.14
2022-11-20T13:36:10.319Z,27.66
2022-11-20T13:41:43.455Z,23.48
2022-11-20T13:47:12.571Z,24.46
2022-11-20T13:52:45.078Z,19.35
2022-11-20T13:58:06.787Z,21.72
2022-11-20T14:04:06.214Z,22.06
2022-11-20T14:09:23.411Z,21.10
2022-11-20T14:14:49.871Z,22.09
2022-11-20T14:20:11.474Z,22.76
2022-11-20T14:25:36.177Z,19.46
2022-11-20T14:31:05.416Z,23.95
2022-11-20T14:36:33.958Z,22.09
2022-11-20T14:41:58.774Z,20.57
2022-11-20T14:47:32.372Z,18.53
2022-11-20T14:52:59.260Z,20.73
2022-11-20T14:58:26.488Z,21.00
2022-11-20T15:03:51.555Z,18.62
2022-11-20T15:09:17.588Z,17.69
2022-11-20T15:14:42.957Z,16.41
2022-11-20T15:20:10.659Z,19.57
2022-11-20T15:25:38.593Z,14.76
2022-11-20T15:31:03.522Z,18.01
2022-11-20T15:36:29.692Z,15.05
2022-11-20T15:41:55.433Z,16.60
2022-11-20T15:47:21.815Z,18.12
2022-11-20T15:52:43.374Z,16.09
2022-11-20T15:58:09.717Z,13.06
2022-11-20T16:03:36.421Z,9.11
2022-11-20T16:08:59.686Z,7.65
2022-11-20T16:14:24.256Z,5.97
2022-11-20T16:19:51.273Z,4.61
2022-11-20T16:25:16.432Z,4.33
2022-11-20T16:30:37.622Z,4.49
2022-11-20T16:36:01.147Z,4.09
2022-11-20T16:41:28.740Z,3.75
2022-11-20T16:46:55.388Z,3.78
2022-11-20T16:52:18.370Z,2.53
2022-11-20T16:57:44.486Z,3.78
2022-11-20T17:03:07.971Z,4.59
2022-11-20T17:08:33.818Z,4.57
2022-11-20T17:13:57.718Z,3.48
2022-11-20T17:19:21.244Z,4.36
2022-11-20T17:24:48.486Z,5.29
2022-11-20T17:30:13.733Z,4.32
2022-11-20T17:35:41.077Z,2.52
2022-11-20T17:41:09.706Z,2.59
2022-11-20T17:46:34.844Z,3.54
2022-11-20T17:51:58.159Z,3.55
2022-11-20T17:57:25.777Z,4.62
2022-11-20T18:02:52.478Z,3.44
2022-11-20T18:08:17.378Z,2.01
2022-11-20T18:13:47.564Z,3.80
2022-11-20T18:19:09.147Z,2.99
2022-11-20T18:24:34.634Z,4.23
2022-11-20T18:29:57.511Z,2.87
2022-11-20T18:35:25.201Z,2.27
2022-11-20T18:40:50.713Z,2.40
2022-11-20T18:46:15.354Z,4.45
2022-11-20T18:51:43.192Z,2.37
2022-11-20T18:57:08.653Z,5.66
2022-11-20T19:02:40.522Z,1.94
2022-11-20T19:08:01.332Z,1.98
2022-11-20T19:13:22.793Z,2.14
2022-11-20T19:18:49.056Z,1.40
2022-11-20T19:24:16.120Z,2.67
2022-11-20T19:29:40.652Z,3.02
2022-11-20T19:35:07.943Z,3.22
2022-11-20T19:40:29.156Z,1.73
2022-11-20T19:45:55.873Z,1.79
2022-11-20T19:51:17.270Z,3.44
2022-11-20T19:56:43.350Z,1.76
2022-11-20T20:02:10.473Z,3.00
2022-11-20T20:07:36.623Z,3.00
2022-11-20T20:13:01.098Z,1.83
2022-11-20T20:18:26.148Z,1.71
2022-11-20T20:23:52.922Z,2.14
2022-11-20T20:29:16.762Z,1.88
2022-11-20T20:34:42.871Z,1.27
2022-11-20T20:40:05.702Z,1.83
2022-11-20T20:45:29.354Z,1.62
2022-11-20T20:50:51.594Z,1.38
2022-11-20T20:56:15.687Z,1.00
2022-11-20T21:01:42.274Z,1.42
2022-11-20T21:07:06.884Z,1.48
2022-11-20T21:12:33.412Z,1.41
2022-11-20T21:18:00.104Z,0.92
2022-11-20T21:23:26.234Z,0.88
2022-11-20T21:28:50.691Z,1.16
2022-11-20T21:34:14.604Z,1.25
2022-11-20T21:39:41.969Z,0.54
2022-11-20T21:45:04.510Z,1.39
2022-11-20T21:50:29.330Z,1.55
2022-11-20T21:55:56.028Z,2.35
2022-11-20T22:01:17.274Z,2.06
2022-11-20T22:06:45.695Z,3.06
2022-11-20T22:12:11.346Z,1.81
2022-11-20T22:17:37.169Z,2.17
2022-11-20T22:23:00.365Z,1.06
2022-11-20T22:28:25.304Z,3.03
2022-11-20T22:33:46.403Z,1.60
2022-11-20T22:39:11.411Z,4.14
2022-11-20T22:44:44.900Z,3.08
2022-11-20T22:50:09.509Z,3.79
2022-11-20T22:55:40.883Z,2.33
2022-11-20T23:01:08.777Z,2.62
2022-11-20T23:06:33.868Z,2.17
2022-11-20T23:12:00.609Z,2.30
2022-11-20T23:17:25.733Z,1.38
2022-11-20T23:22:51.444Z,2.86
2022-11-20T23:28:17.931Z,2.73
2022-11-20T23:33:44.248Z,3.39
2022-11-20T23:39:09.537Z,2.17
2022-11-20T23:44:34.585Z,4.37
2022-11-20T23:50:01.629Z,1.46
2022-11-20T23:55:29.545Z,5.07
